Language: 


Des rapports , des résumés tant et plus, au choix de chacun....


Données Historiques de Météogheer
Journalier Rapport pour Mars 8, 2018 Unitée:  Les deux    Impériale   Métrique
Suivant Jour »
Journalier Hebdomadaire Mensuel Annuel Sur mesure
  Max: Min: Moyenne:
Température: 51.1 °F /  10.6 °C 35.8 °F /  2.1 °C 42.6 °F /  5.9 °C
Point de rosée: 44.6 °F /  7.0 °C 33.8 °F /  1.0 °C 38.7 °F /  3.7 °C
Humidité: 98% 57% 85%
Vent: 33.3mph /  53.6km/h - 10.3mph /  16.5km/h
Rafales: 33.3mph /  53.6km/h - -
Vent- - SW
Pression: 29.6 in /  1002.9 hPa 29.4 in /  996.2 hPa -
Pluie: 0.21 in /  5.3 mm    
Historical Graphs
 
 
Données tabulaires pour Mars 8, 2018
Heure Température Point de rosée Pression Vent Vent Rafales Humidité Pluie Taux (Horaire) Conditions
00:00 38.7 °F /  3.7 °C 39.2 °F /  4.0 °C 29.5in /  999.9hPa WSW 4.9mph /  7.9km/h 8.5mph /  13.7km/h 98% 0in /  0.0mm
00:10 38.7 °F /  3.7 °C 39.2 °F /  4.0 °C 29.5in /  999.9hPa SW 5.4mph /  8.7km/h 7.4mph /  11.9km/h 98% 0in /  0.0mm
00:20 38.5 °F /  3.6 °C 37.4 °F /  3.0 °C 29.5in /  998.9hPa SW 2mph /  3.2km/h 6mph /  9.7km/h 97% 0in /  0.0mm
00:30 38.5 °F /  3.6 °C 37.4 °F /  3.0 °C 29.5in /  999.9hPa Calm   8.1mph /  13.0km/h 97% 0in /  0.0mm
00:40 38.3 °F /  3.5 °C 37.4 °F /  3.0 °C 29.5in /  999.9hPa Calm   5.8mph /  9.3km/h 96% 0in /  0.0mm
00:50 37.9 °F /  3.3 °C 37.4 °F /  3.0 °C 29.5in /  999.9hPa SSW 4mph /  6.4km/h 4.3mph /  6.9km/h 96% 0in /  0.0mm
01:00 37.6 °F /  3.1 °C 37.4 °F /  3.0 °C 29.5in /  999.9hPa SSW 4mph /  6.4km/h 5.8mph /  9.3km/h 95% 0in /  0.0mm
01:10 37 °F /  2.8 °C 37.4 °F /  3.0 °C 29.5in /  999.9hPa South 1.6mph /  2.6km/h 1.6mph /  2.6km/h 95% 0in /  0.0mm
01:20 36.5 °F /  2.5 °C 35.6 °F /  2.0 °C 29.5in /  998.9hPa Calm   1.3mph /  2.1km/h 94% 0in /  0.0mm
01:30 36.3 °F /  2.4 °C 35.6 °F /  2.0 °C 29.5in /  998.9hPa Calm   3.4mph /  5.5km/h 95% 0in /  0.0mm
01:40 36.1 °F /  2.3 °C 35.6 °F /  2.0 °C 29.5in /  998.9hPa South 4mph /  6.4km/h 4.3mph /  6.9km/h 96% 0in /  0.0mm
01:50 36.1 °F /  2.3 °C 35.6 °F /  2.0 °C 29.5in /  999.9hPa Calm   4.3mph /  6.9km/h 96% 0in /  0.0mm
02:00 36 °F /  2.2 °C 35.6 °F /  2.0 °C 29.5in /  998.9hPa Calm   4.3mph /  6.9km/h 96% 0in /  0.0mm
02:10 35.8 °F /  2.1 °C 35.6 °F /  2.0 °C 29.5in /  998.9hPa Calm     96% 0in /  0.0mm
02:20 36 °F /  2.2 °C 35.6 °F /  2.0 °C 29.5in /  998.9hPa Calm   4.3mph /  6.9km/h 96% 0in /  0.0mm
02:30 36 °F /  2.2 °C 35.6 °F /  2.0 °C 29.5in /  998.9hPa Calm   2.9mph /  4.7km/h 96% 0in /  0.0mm
02:40 36 °F /  2.2 °C 35.6 °F /  2.0 °C 29.5in /  998.9hPa Calm     96% 0in /  0.0mm
02:50 36 °F /  2.2 °C 35.6 °F /  2.0 °C 29.5in /  998.9hPa Calm   4.5mph /  7.2km/h 96% 0in /  0.0mm
03:00 36.1 °F /  2.3 °C 35.6 °F /  2.0 °C 29.5in /  998.9hPa SSE 1.6mph /  2.6km/h 4.3mph /  6.9km/h 96% 0in /  0.0mm
03:10 36 °F /  2.2 °C 35.6 °F /  2.0 °C 29.5in /  998.9hPa Calm   3.6mph /  5.8km/h 96% 0in /  0.0mm
03:20 36.1 °F /  2.3 °C 35.6 °F /  2.0 °C 29.5in /  998.9hPa South 4mph /  6.4km/h 6.3mph /  10.1km/h 96% 0in /  0.0mm
03:40 36.1 °F /  2.3 °C 35.6 °F /  2.0 °C 29.5in /  998.9hPa South 4.3mph /  6.9km/h 7.6mph /  12.2km/h 97% 0in /  0.0mm
03:50 36.3 °F /  2.4 °C 35.6 °F /  2.0 °C 29.5in /  998.9hPa Calm   6.3mph /  10.1km/h 97% 0in /  0.0mm
04:00 36.3 °F /  2.4 °C 35.6 °F /  2.0 °C 29.5in /  998.9hPa Calm   6mph /  9.7km/h 97% 0in /  0.0mm
04:10 36.3 °F /  2.4 °C 35.6 °F /  2.0 °C 29.5in /  998.9hPa South 4mph /  6.4km/h 6mph /  9.7km/h 97% 0in /  0.0mm
04:20 36.3 °F /  2.4 °C 35.6 °F /  2.0 °C 29.5in /  997.9hPa Calm   5.8mph /  9.3km/h 96% 0in /  0.0mm
04:30 36.5 °F /  2.5 °C 37.4 °F /  3.0 °C 29.5in /  997.9hPa South 3.6mph /  5.8km/h 7.6mph /  12.2km/h 97% 0in /  0.0mm
04:40 36.7 °F /  2.6 °C 37.4 °F /  3.0 °C 29.5in /  997.9hPa South 5.4mph /  8.7km/h 6.5mph /  10.5km/h 97% 0in /  0.0mm
04:50 36.7 °F /  2.6 °C 37.4 °F /  3.0 °C 29.5in /  997.9hPa Calm   7.8mph /  12.6km/h 97% 0in /  0.0mm
05:00 36.9 °F /  2.7 °C 37.4 °F /  3.0 °C 29.5in /  997.9hPa SSE 4.9mph /  7.9km/h 7.8mph /  12.6km/h 97% 0in /  0.0mm
05:10 37 °F /  2.8 °C 37.4 °F /  3.0 °C 29.5in /  997.9hPa SSW 6mph /  9.7km/h 8.1mph /  13.0km/h 98% 0in /  0.0mm
05:15 37 °F /  2.8 °C 37.4 °F /  3.0 °C 29.5in /  997.9hPa South 6.7mph /  10.8km/h 8.5mph /  13.7km/h 98% 0in /  0.0mm
05:20 37.2 °F /  2.9 °C 37.4 °F /  3.0 °C 29.5in /  997.9hPa South 5.4mph /  8.7km/h 8.5mph /  13.7km/h 97% 0in /  0.0mm
05:30 37.2 °F /  2.9 °C 37.4 °F /  3.0 °C 29.5in /  997.9hPa South 7.8mph /  12.6km/h 8.5mph /  13.7km/h 97% 0in /  0.0mm
05:40 37.6 °F /  3.1 °C 37.4 °F /  3.0 °C 29.5in /  997.9hPa South 6.5mph /  10.5km/h 7.8mph /  12.6km/h 97% 0in /  0.0mm
05:50 37.8 °F /  3.2 °C 37.4 °F /  3.0 °C 29.4in /  996.8hPa South 4mph /  6.4km/h 9.6mph /  15.4km/h 97% 0in /  0.0mm
06:00 37.9 °F /  3.3 °C 37.4 °F /  3.0 °C 29.4in /  996.8hPa South 2.2mph /  3.5km/h 10.3mph /  16.6km/h 98% 0in /  0.0mm
06:10 38.1 °F /  3.4 °C 37.4 °F /  3.0 °C 29.4in /  996.8hPa SSW 5.4mph /  8.7km/h 9.8mph /  15.8km/h 98% 0in /  0.0mm
06:20 38.3 °F /  3.5 °C 39.2 °F /  4.0 °C 29.4in /  996.8hPa SSW 6.3mph /  10.1km/h 8.5mph /  13.7km/h 98% 0in /  0.0mm
06:30 38.7 °F /  3.7 °C 39.2 °F /  4.0 °C 29.4in /  996.8hPa SSW 6.5mph /  10.5km/h 8.7mph /  14.0km/h 98% 0in /  0.0mm
06:40 39 °F /  3.9 °C 39.2 °F /  4.0 °C 29.4in /  996.8hPa South 4.3mph /  6.9km/h 10.3mph /  16.6km/h 98% 0in /  0.0mm
06:50 39.6 °F /  4.2 °C 39.2 °F /  4.0 °C 29.4in /  996.8hPa South 8.1mph /  13.0km/h 12.5mph /  20.1km/h 98% 0in /  0.0mm
07:00 39.9 °F /  4.4 °C 39.2 °F /  4.0 °C 29.4in /  996.2hPa SSW 9.8mph /  15.8km/h 11.9mph /  19.1km/h 98% 0in /  0.0mm
07:10 40.3 °F /  4.6 °C 41 °F /  5.0 °C 29.4in /  996.2hPa SSW 6.3mph /  10.1km/h 10.5mph /  16.9km/h 98% 0in /  0.0mm
07:20 40.6 °F /  4.8 °C 41 °F /  5.0 °C 29.4in /  996.2hPa SW 8.7mph /  14.0km/h 15.2mph /  24.5km/h 98% 0in /  0.0mm
07:30 41 °F /  5.0 °C 41 °F /  5.0 °C 29.4in /  996.8hPa SSW 6.5mph /  10.5km/h 15.4mph /  24.8km/h 97% 0in /  0.0mm
07:40 41.2 °F /  5.1 °C 41 °F /  5.0 °C 29.4in /  996.8hPa South 8.5mph /  13.7km/h 17.4mph /  28.0km/h 96% 0in /  0.0mm
07:50 41.4 °F /  5.2 °C 41 °F /  5.0 °C 29.4in /  996.8hPa SW 10.5mph /  16.9km/h 15.4mph /  24.8km/h 95% 0in /  0.0mm
08:00 41.5 °F /  5.3 °C 41 °F /  5.0 °C 29.4in /  996.8hPa SSW 9.6mph /  15.4km/h 14.8mph /  23.8km/h 94% 0in /  0.0mm
08:10 41.5 °F /  5.3 °C 41 °F /  5.0 °C 29.4in /  996.8hPa South 10.3mph /  16.6km/h 14.5mph /  23.3km/h 93% 0in /  0.0mm
08:20 41.7 °F /  5.4 °C 41 °F /  5.0 °C 29.4in /  996.8hPa South 9.6mph /  15.4km/h 17mph /  27.4km/h 93% 0in /  0.0mm
08:30 41.7 °F /  5.4 °C 41 °F /  5.0 °C 29.4in /  996.8hPa South 8.5mph /  13.7km/h 14.5mph /  23.3km/h 93% 0in /  0.0mm
08:40 42.1 °F /  5.6 °C 41 °F /  5.0 °C 29.4in /  996.8hPa SW 9.2mph /  14.8km/h 17.2mph /  27.7km/h 94% 0in /  0.0mm
08:50 42.4 °F /  5.8 °C 41 °F /  5.0 °C 29.4in /  996.8hPa SW 13.6mph /  21.9km/h 16.6mph /  26.7km/h 94% 0in /  0.0mm
09:00 42.8 °F /  6.0 °C 41 °F /  5.0 °C 29.4in /  996.8hPa SSW 10.5mph /  16.9km/h 17mph /  27.4km/h 93% 0in /  0.0mm
09:10 43 °F /  6.1 °C 41 °F /  5.0 °C 29.4in /  996.8hPa SW 12.3mph /  19.8km/h 20.1mph /  32.3km/h 93% 0in /  0.0mm
09:20 43 °F /  6.1 °C 41 °F /  5.0 °C 29.4in /  996.2hPa SSW 8.5mph /  13.7km/h 16.3mph /  26.2km/h 93% 0in /  0.0mm
09:25 43 °F /  6.1 °C 41 °F /  5.0 °C 29.4in /  996.2hPa SSW 10.1mph /  16.3km/h 13mph /  20.9km/h 93% 0in /  0.0mm
09:30 43 °F /  6.1 °C 41 °F /  5.0 °C 29.4in /  996.8hPa SSW 7.4mph /  11.9km/h 13mph /  20.9km/h 94% 0in /  0.0mm
09:40 42.8 °F /  6.0 °C 42.8 °F /  6.0 °C 29.4in /  996.8hPa SSW 6.3mph /  10.1km/h 14.5mph /  23.3km/h 95% 0.01in /  0.3mm
09:45 42.8 °F /  6.0 °C 42.8 °F /  6.0 °C 29.4in /  996.8hPa SSW 10.3mph /  16.6km/h 14.3mph /  23.0km/h 96% 0.02in /  0.5mm
09:50 43 °F /  6.1 °C 42.8 °F /  6.0 °C 29.4in /  996.8hPa SSW 6.5mph /  10.5km/h 13mph /  20.9km/h 97% 0.04in /  1.0mm
10:00 43 °F /  6.1 °C 42.8 °F /  6.0 °C 29.4in /  996.8hPa SSW 7.8mph /  12.6km/h 14.5mph /  23.3km/h 98% 0.06in /  1.5mm
10:10 43.3 °F /  6.3 °C 42.8 °F /  6.0 °C 29.4in /  996.8hPa SSW 9.8mph /  15.8km/h 12.3mph /  19.8km/h 98% 0.09in /  2.3mm
10:20 43.3 °F /  6.3 °C 42.8 °F /  6.0 °C 29.4in /  996.8hPa SSW 10.3mph /  16.6km/h 14.1mph /  22.7km/h 98% 0.1in /  2.5mm
10:30 43.5 °F /  6.4 °C 42.8 °F /  6.0 °C 29.4in /  996.8hPa SSW 8.7mph /  14.0km/h 17mph /  27.4km/h 98% 0.11in /  2.8mm
10:40 43.7 °F /  6.5 °C 44.6 °F /  7.0 °C 29.4in /  996.8hPa SW 11mph /  17.7km/h 14.3mph /  23.0km/h 98% 0.1in /  2.5mm
10:50 43.9 °F /  6.6 °C 44.6 °F /  7.0 °C 29.4in /  996.2hPa SW 10.5mph /  16.9km/h 17.2mph /  27.7km/h 98% 0.09in /  2.3mm
11:00 43.9 °F /  6.6 °C 44.6 °F /  7.0 °C 29.4in /  996.8hPa SW 13mph /  20.9km/h 14.5mph /  23.3km/h 98% 0.06in /  1.5mm
11:10 44.1 °F /  6.7 °C 44.6 °F /  7.0 °C 29.4in /  996.8hPa SW 13.9mph /  22.4km/h 17.2mph /  27.7km/h 98% 0.05in /  1.3mm
11:20 44.1 °F /  6.7 °C 44.6 °F /  7.0 °C 29.4in /  996.8hPa SSW 13.6mph /  21.9km/h 15.2mph /  24.5km/h 98% 0.04in /  1.0mm
11:30 44.2 °F /  6.8 °C 44.6 °F /  7.0 °C 29.4in /  996.8hPa SW 9.8mph /  15.8km/h 17.4mph /  28.0km/h 98% 0.04in /  1.0mm
11:40 44.6 °F /  7.0 °C 44.6 °F /  7.0 °C 29.4in /  996.8hPa WSW 10.1mph /  16.3km/h 14.8mph /  23.8km/h 97% 0.04in /  1.0mm
11:50 44.8 °F /  7.1 °C 44.6 °F /  7.0 °C 29.4in /  996.8hPa SW 10.3mph /  16.6km/h 15.2mph /  24.5km/h 96% 0.02in /  0.5mm
12:00 45.3 °F /  7.4 °C 44.6 °F /  7.0 °C 29.4in /  996.8hPa WSW 10.1mph /  16.3km/h 13.2mph /  21.2km/h 95% 0.02in /  0.5mm
12:10 45.9 °F /  7.7 °C 44.6 °F /  7.0 °C 29.4in /  996.8hPa SW 10.7mph /  17.2km/h 15.4mph /  24.8km/h 94% 0.01in /  0.3mm
12:20 45.9 °F /  7.7 °C 42.8 °F /  6.0 °C 29.4in /  996.8hPa SSW 8.7mph /  14.0km/h 12.8mph /  20.6km/h 92% 0.01in /  0.3mm
12:25 45.9 °F /  7.7 °C 42.8 °F /  6.0 °C 29.4in /  996.8hPa SW 10.5mph /  16.9km/h 16.1mph /  25.9km/h 91% 0in /  0.0mm
12:30 45.9 °F /  7.7 °C 42.8 °F /  6.0 °C 29.4in /  996.8hPa WSW 12.8mph /  20.6km/h 16.1mph /  25.9km/h 90% 0in /  0.0mm
12:40 45.7 °F /  7.6 °C 42.8 °F /  6.0 °C 29.4in /  996.8hPa SW 13.2mph /  21.2km/h 17.2mph /  27.7km/h 88% 0in /  0.0mm
12:50 43.7 °F /  6.5 °C 41 °F /  5.0 °C 29.4in /  996.8hPa WSW 22.8mph /  36.7km/h 33.3mph /  53.6km/h 86% 0.01in /  0.3mm
13:00 42.3 °F /  5.7 °C 39.2 °F /  4.0 °C 29.4in /  996.8hPa West 15.4mph /  24.8km/h 25.3mph /  40.7km/h 90% 0.03in /  0.8mm
13:10 42.8 °F /  6.0 °C 41 °F /  5.0 °C 29.4in /  996.8hPa WSW 18.6mph /  29.9km/h 23mph /  37.0km/h 94% 0.05in /  1.3mm
13:20 43 °F /  6.1 °C 41 °F /  5.0 °C 29.4in /  996.8hPa WSW 13.2mph /  21.2km/h 22.4mph /  36.0km/h 94% 0.06in /  1.5mm
13:30 44.2 °F /  6.8 °C 42.8 °F /  6.0 °C 29.4in /  996.8hPa WSW 14.1mph /  22.7km/h 22.6mph /  36.4km/h 95% 0.06in /  1.5mm
13:40 44.4 °F /  6.9 °C 42.8 °F /  6.0 °C 29.4in /  996.8hPa WSW 13.4mph /  21.6km/h 23.3mph /  37.5km/h 92% 0.06in /  1.5mm
13:45 46.4 °F /  8.0 °C 44.6 °F /  7.0 °C 29.4in /  996.8hPa West 20.4mph /  32.8km/h 25.9mph /  41.7km/h 93% 0.06in /  1.5mm
13:50 47.1 °F /  8.4 °C 44.6 °F /  7.0 °C 29.4in /  996.8hPa WSW 19.9mph /  32.0km/h 25.9mph /  41.7km/h 90% 0.05in /  1.3mm
13:55 47.5 °F /  8.6 °C 44.6 °F /  7.0 °C 29.4in /  996.8hPa WSW 23.5mph /  37.8km/h 24.6mph /  39.6km/h 90% 0.03in /  0.8mm
14:00 48.4 °F /  9.1 °C 44.6 °F /  7.0 °C 29.4in /  996.8hPa West 21.9mph /  35.2km/h 25.7mph /  41.4km/h 84% 0.03in /  0.8mm
14:05 48.7 °F /  9.3 °C 44.6 °F /  7.0 °C 29.4in /  996.8hPa West 13.2mph /  21.2km/h 25.7mph /  41.4km/h 84% 0.01in /  0.3mm
14:10 49.8 °F /  9.9 °C 44.6 °F /  7.0 °C 29.4in /  996.8hPa West 20.6mph /  33.1km/h 23.9mph /  38.5km/h 83% 0.01in /  0.3mm
14:20 49.8 °F /  9.9 °C 42.8 °F /  6.0 °C 29.4in /  996.8hPa WSW 23.3mph /  37.5km/h 27.3mph /  43.9km/h 78% 0in /  0.0mm
14:25 49.5 °F /  9.7 °C 41 °F /  5.0 °C 29.4in /  996.8hPa WSW 12.8mph /  20.6km/h 27.3mph /  43.9km/h 73% 0in /  0.0mm
14:30 49.6 °F /  9.8 °C 41 °F /  5.0 °C 29.4in /  996.8hPa West 26.4mph /  42.5km/h 26.8mph /  43.1km/h 72% 0in /  0.0mm
14:35 49.3 °F /  9.6 °C 41 °F /  5.0 °C 29.4in /  996.8hPa WSW 22.1mph /  35.6km/h 28.6mph /  46.0km/h 70% 0in /  0.0mm
14:40 49.6 °F /  9.8 °C 41 °F /  5.0 °C 29.4in /  996.8hPa WSW 21.9mph /  35.2km/h 28.6mph /  46.0km/h 71% 0in /  0.0mm
14:45 50 °F /  10.0 °C 39.2 °F /  4.0 °C 29.4in /  996.8hPa WSW 23.9mph /  38.5km/h 29.3mph /  47.1km/h 65% 0in /  0.0mm
14:50 49.6 °F /  9.8 °C 37.4 °F /  3.0 °C 29.4in /  996.8hPa WSW 21.9mph /  35.2km/h 29.3mph /  47.1km/h 61% 0in /  0.0mm
14:55 49.5 °F /  9.7 °C 37.4 °F /  3.0 °C 29.4in /  996.8hPa WSW 13.2mph /  21.2km/h 28.9mph /  46.5km/h 61% 0in /  0.0mm
15:00 50.2 °F /  10.1 °C 39.2 °F /  4.0 °C 29.4in /  996.2hPa WSW 20.1mph /  32.3km/h 26.8mph /  43.1km/h 64% 0in /  0.0mm
15:05 50.7 °F /  10.4 °C 37.4 °F /  3.0 °C 29.4in /  996.2hPa WSW 21.5mph /  34.6km/h 30.6mph /  49.2km/h 61% 0in /  0.0mm
15:10 51.1 °F /  10.6 °C 37.4 °F /  3.0 °C 29.4in /  996.2hPa West 26.4mph /  42.5km/h 31.8mph /  51.2km/h 61% 0in /  0.0mm
15:15 50.5 °F /  10.3 °C 35.6 °F /  2.0 °C 29.4in /  996.8hPa West 33.3mph /  53.6km/h 33.3mph /  53.6km/h 57% 0in /  0.0mm
15:20 49.8 °F /  9.9 °C 37.4 °F /  3.0 °C 29.4in /  996.8hPa WSW 14.8mph /  23.8km/h 33.3mph /  53.6km/h 61% 0in /  0.0mm
15:25 50.5 °F /  10.3 °C 37.4 °F /  3.0 °C 29.4in /  996.8hPa West 23.7mph /  38.1km/h 33.3mph /  53.6km/h 61% 0in /  0.0mm
15:30 50.4 °F /  10.2 °C 37.4 °F /  3.0 °C 29.4in /  996.8hPa WSW 17.9mph /  28.8km/h 25.5mph /  41.0km/h 60% 0in /  0.0mm
15:40 48.9 °F /  9.4 °C 35.6 °F /  2.0 °C 29.4in /  996.8hPa WSW 19.9mph /  32.0km/h 27.3mph /  43.9km/h 60% 0in /  0.0mm
15:50 49.8 °F /  9.9 °C 37.4 °F /  3.0 °C 29.4in /  996.8hPa WNW 26.2mph /  42.2km/h 28.6mph /  46.0km/h 62% 0in /  0.0mm
16:00 49.8 °F /  9.9 °C 39.2 °F /  4.0 °C 29.5in /  997.9hPa West 18.1mph /  29.1km/h 26.2mph /  42.2km/h 66% 0in /  0.0mm
16:10 49.3 °F /  9.6 °C 35.6 °F /  2.0 °C 29.5in /  997.9hPa WSW 23.9mph /  38.5km/h 27.7mph /  44.6km/h 58% 0in /  0.0mm
16:20 49.5 °F /  9.7 °C 37.4 °F /  3.0 °C 29.5in /  997.9hPa West 17.7mph /  28.5km/h 30mph /  48.3km/h 62% 0in /  0.0mm
16:30 49.5 °F /  9.7 °C 37.4 °F /  3.0 °C 29.5in /  997.9hPa West 17.7mph /  28.5km/h 28mph /  45.1km/h 62% 0in /  0.0mm
16:40 49.6 °F /  9.8 °C 35.6 °F /  2.0 °C 29.5in /  997.9hPa WSW 21.9mph /  35.2km/h 28.6mph /  46.0km/h 58% 0in /  0.0mm
16:50 49.1 °F /  9.5 °C 35.6 °F /  2.0 °C 29.5in /  997.9hPa West 26.4mph /  42.5km/h 26.6mph /  42.8km/h 57% 0in /  0.0mm
16:55 49.1 °F /  9.5 °C 35.6 °F /  2.0 °C 29.5in /  997.9hPa West 24.2mph /  38.9km/h 26.4mph /  42.5km/h 58% 0in /  0.0mm
17:00 48.7 °F /  9.3 °C 35.6 °F /  2.0 °C 29.5in /  998.9hPa WSW 23.5mph /  37.8km/h 24.6mph /  39.6km/h 58% 0in /  0.0mm
17:05 48.7 °F /  9.3 °C 35.6 °F /  2.0 °C 29.5in /  998.9hPa WSW 14.5mph /  23.3km/h 24.4mph /  39.3km/h 58% 0in /  0.0mm
17:10 48.7 °F /  9.3 °C 35.6 °F /  2.0 °C 29.5in /  998.9hPa West 12.8mph /  20.6km/h 23.5mph /  37.8km/h 58% 0in /  0.0mm
17:15 48.6 °F /  9.2 °C 35.6 °F /  2.0 °C 29.5in /  998.9hPa WSW 17.4mph /  28.0km/h 26.4mph /  42.5km/h 58% 0in /  0.0mm
17:20 48.4 °F /  9.1 °C 33.8 °F /  1.0 °C 29.5in /  998.9hPa West 12.1mph /  19.5km/h 26.4mph /  42.5km/h 57% 0in /  0.0mm
17:30 48.2 °F /  9.0 °C 35.6 °F /  2.0 °C 29.5in /  997.9hPa West 14.5mph /  23.3km/h 17.9mph /  28.8km/h 61% 0in /  0.0mm
17:35 48 °F /  8.9 °C 37.4 °F /  3.0 °C 29.5in /  997.9hPa West 15.4mph /  24.8km/h 17.4mph /  28.0km/h 63% 0in /  0.0mm
17:40 47.8 °F /  8.8 °C 35.6 °F /  2.0 °C 29.5in /  997.9hPa WSW 14.5mph /  23.3km/h 19.7mph /  31.7km/h 62% 0in /  0.0mm
17:45 47.5 °F /  8.6 °C 35.6 °F /  2.0 °C 29.5in /  997.9hPa West 14.8mph /  23.8km/h 22.8mph /  36.7km/h 60% 0in /  0.0mm
17:50 47.3 °F /  8.5 °C 35.6 °F /  2.0 °C 29.5in /  997.9hPa WSW 9.8mph /  15.8km/h 22.8mph /  36.7km/h 62% 0in /  0.0mm
18:00 46.9 °F /  8.3 °C 35.6 °F /  2.0 °C 29.5in /  998.9hPa WSW 15.2mph /  24.5km/h 18.6mph /  29.9km/h 63% 0in /  0.0mm
18:10 46 °F /  7.8 °C 35.6 °F /  2.0 °C 29.5in /  998.9hPa West 10.3mph /  16.6km/h 17.4mph /  28.0km/h 66% 0in /  0.0mm
18:15 45.7 °F /  7.6 °C 35.6 °F /  2.0 °C 29.5in /  998.9hPa WSW 15.4mph /  24.8km/h 17.4mph /  28.0km/h 67% 0in /  0.0mm
18:20 45.3 °F /  7.4 °C 35.6 °F /  2.0 °C 29.5in /  998.9hPa SW 12.5mph /  20.1km/h 17mph /  27.4km/h 68% 0in /  0.0mm
18:25 45.1 °F /  7.3 °C 35.6 °F /  2.0 °C 29.5in /  998.9hPa West 12.1mph /  19.5km/h 17.4mph /  28.0km/h 69% 0in /  0.0mm
18:30 45.1 °F /  7.3 °C 35.6 °F /  2.0 °C 29.5in /  999.9hPa West 10.5mph /  16.9km/h 17.7mph /  28.5km/h 69% 0in /  0.0mm
18:40 44.6 °F /  7.0 °C 35.6 °F /  2.0 °C 29.5in /  999.9hPa WSW 13mph /  20.9km/h 18.1mph /  29.1km/h 71% 0in /  0.0mm
18:50 44.2 °F /  6.8 °C 35.6 °F /  2.0 °C 29.5in /  999.9hPa WSW 14.3mph /  23.0km/h 18.6mph /  29.9km/h 72% 0in /  0.0mm
18:55 44.1 °F /  6.7 °C 35.6 °F /  2.0 °C 29.5in /  999.9hPa WSW 10.7mph /  17.2km/h 22.6mph /  36.4km/h 72% 0in /  0.0mm
19:00 44.1 °F /  6.7 °C 35.6 °F /  2.0 °C 29.6in /  1000.9hPa WSW 8.5mph /  13.7km/h 22.6mph /  36.4km/h 72% 0in /  0.0mm
19:10 43.7 °F /  6.5 °C 37.4 °F /  3.0 °C 29.6in /  1000.9hPa WSW 11.2mph /  18.0km/h 16.6mph /  26.7km/h 74% 0in /  0.0mm
19:20 43.2 °F /  6.2 °C 37.4 °F /  3.0 °C 29.5in /  999.9hPa WSW 9.6mph /  15.4km/h 13mph /  20.9km/h 75% 0in /  0.0mm
19:30 42.8 °F /  6.0 °C 35.6 °F /  2.0 °C 29.6in /  1000.9hPa WSW 10.5mph /  16.9km/h 12.1mph /  19.5km/h 76% 0in /  0.0mm
19:40 42.1 °F /  5.6 °C 35.6 °F /  2.0 °C 29.6in /  1000.9hPa WSW 6.3mph /  10.1km/h 10.5mph /  16.9km/h 78% 0in /  0.0mm
19:50 41.7 °F /  5.4 °C 37.4 °F /  3.0 °C 29.6in /  1000.9hPa WSW 6.3mph /  10.1km/h 10.7mph /  17.2km/h 80% 0in /  0.0mm
20:00 41.5 °F /  5.3 °C 37.4 °F /  3.0 °C 29.6in /  1001.9hPa WSW 10.1mph /  16.3km/h 11mph /  17.7km/h 82% 0in /  0.0mm
20:10 41 °F /  5.0 °C 37.4 °F /  3.0 °C 29.6in /  1001.9hPa WSW 7.4mph /  11.9km/h 9.6mph /  15.4km/h 83% 0in /  0.0mm
20:20 40.6 °F /  4.8 °C 35.6 °F /  2.0 °C 29.6in /  1001.9hPa Calm   8.7mph /  14.0km/h 84% 0in /  0.0mm
20:30 40.5 °F /  4.7 °C 37.4 °F /  3.0 °C 29.6in /  1001.9hPa WSW 6.3mph /  10.1km/h 8.1mph /  13.0km/h 85% 0in /  0.0mm
20:40 39.9 °F /  4.4 °C 35.6 °F /  2.0 °C 29.6in /  1001.9hPa WSW 6mph /  9.7km/h 8.1mph /  13.0km/h 85% 0in /  0.0mm
20:50 39.9 °F /  4.4 °C 37.4 °F /  3.0 °C 29.6in /  1001.9hPa Calm   7.8mph /  12.6km/h 87% 0in /  0.0mm
21:00 39.7 °F /  4.3 °C 37.4 °F /  3.0 °C 29.6in /  1002.9hPa WSW 5.4mph /  8.7km/h 6.7mph /  10.8km/h 87% 0in /  0.0mm
21:10 39.7 °F /  4.3 °C 37.4 °F /  3.0 °C 29.6in /  1002.9hPa WSW 5.4mph /  8.7km/h 6.7mph /  10.8km/h 87% 0in /  0.0mm
21:20 39.7 °F /  4.3 °C 37.4 °F /  3.0 °C 29.6in /  1001.9hPa WSW 5.4mph /  8.7km/h 6.7mph /  10.8km/h 87% 0in /  0.0mm
21:30 39.7 °F /  4.3 °C 37.4 °F /  3.0 °C 29.6in /  1002.9hPa WSW 5.4mph /  8.7km/h 6.7mph /  10.8km/h 87% 0in /  0.0mm
21:40 39.7 °F /  4.3 °C 37.4 °F /  3.0 °C 29.6in /  1002.9hPa WSW 6mph /  9.7km/h 6mph /  9.7km/h 87% 0in /  0.0mm
21:50 39.7 °F /  4.3 °C 37.4 °F /  3.0 °C 29.6in /  1002.9hPa WSW 6mph /  9.7km/h 6mph /  9.7km/h 87% 0in /  0.0mm
22:00 39.7 °F /  4.3 °C 37.4 °F /  3.0 °C 29.6in /  1002.9hPa WSW 6mph /  9.7km/h 6mph /  9.7km/h 87% 0in /  0.0mm
22:10 39.7 °F /  4.3 °C 37.4 °F /  3.0 °C 29.6in /  1002.9hPa WSW 6mph /  9.7km/h 6mph /  9.7km/h 87% 0in /  0.0mm
22:20 39.7 °F /  4.3 °C 37.4 °F /  3.0 °C 29.6in /  1002.9hPa WSW 6mph /  9.7km/h 6mph /  9.7km/h 87% 0in /  0.0mm
22:30 39.7 °F /  4.3 °C 37.4 °F /  3.0 °C 29.6in /  1002.9hPa WSW 6mph /  9.7km/h 6mph /  9.7km/h 87% 0in /  0.0mm
22:40 39.7 °F /  4.3 °C 37.4 °F /  3.0 °C 29.6in /  1002.9hPa WSW 6mph /  9.7km/h 6mph /  9.7km/h 87% 0in /  0.0mm
22:50 39.7 °F /  4.3 °C 37.4 °F /  3.0 °C 29.6in /  1002.9hPa WSW 6mph /  9.7km/h 6mph /  9.7km/h 87% 0in /  0.0mm
23:00 39.7 °F /  4.3 °C 37.4 °F /  3.0 °C 29.6in /  1002.9hPa WSW 6mph /  9.7km/h 6mph /  9.7km/h 87% 0in /  0.0mm
23:10 39.7 °F /  4.3 °C 37.4 °F /  3.0 °C 29.6in /  1002.9hPa WSW 6mph /  9.7km/h 6mph /  9.7km/h 87% 0in /  0.0mm
23:20 39.7 °F /  4.3 °C 37.4 °F /  3.0 °C 29.6in /  1002.9hPa WSW 6mph /  9.7km/h 6mph /  9.7km/h 87% 0in /  0.0mm
23:30 39.7 °F /  4.3 °C 37.4 °F /  3.0 °C 29.6in /  1002.9hPa WSW 6mph /  9.7km/h 6mph /  9.7km/h 87% 0in /  0.0mm
23:40 39.7 °F /  4.3 °C 37.4 °F /  3.0 °C 29.6in /  1002.9hPa WSW 6mph /  9.7km/h 6mph /  9.7km/h 87% 0in /  0.0mm
23:50 39.7 °F /  4.3 °C 37.4 °F /  3.0 °C 29.6in /  1002.9hPa WSW 6mph /  9.7km/h 6mph /  9.7km/h 87% 0in /  0.0mm
Données Historique de Météo Turbie

Mise a jour : 18/06/2018 01:45:16
Généré par Cumulus 1.9.4 (1099)